createdAt,value
2024-01-28T00:01:23.888Z,2.53
2024-01-28T00:03:53.484Z,3.60
2024-01-28T00:06:21.733Z,4.73
2024-01-28T00:08:49.989Z,9.57
2024-01-28T00:11:18.112Z,7.70
2024-01-28T00:13:46.172Z,2.53
2024-01-28T00:16:15.594Z,2.70
2024-01-28T00:18:44.425Z,3.13
2024-01-28T00:21:14.265Z,2.80
2024-01-28T00:23:42.415Z,7.43
2024-01-28T00:26:10.871Z,2.83
2024-01-28T00:28:39.183Z,3.50
2024-01-28T00:31:10.149Z,2.27
2024-01-28T00:33:38.401Z,6.33
2024-01-28T00:36:07.566Z,3.67
2024-01-28T00:38:37.119Z,3.40
2024-01-28T00:41:05.831Z,3.03
2024-01-28T00:43:33.969Z,9.67
2024-01-28T00:46:02.132Z,2.40
2024-01-28T00:48:30.375Z,2.63
2024-01-28T00:51:01.409Z,2.17
2024-01-28T00:53:29.700Z,5.07
2024-01-28T00:55:59.658Z,3.67
2024-01-28T01:01:45.222Z,3.57
2024-01-28T01:04:13.489Z,3.00
2024-01-28T01:06:44.639Z,4.40
2024-01-28T01:09:13.290Z,4.23
2024-01-28T01:11:44.871Z,3.87
2024-01-28T01:14:13.366Z,3.43
2024-01-28T01:16:41.396Z,5.80
2024-01-28T01:19:11.150Z,2.33
2024-01-28T01:21:39.333Z,3.23
2024-01-28T01:24:07.682Z,3.80
2024-01-28T01:26:35.798Z,4.27
2024-01-28T01:29:04.070Z,3.00
2024-01-28T01:31:32.215Z,4.80
2024-01-28T01:34:00.687Z,5.13
2024-01-28T01:36:30.181Z,5.70
2024-01-28T01:38:58.555Z,6.20
2024-01-28T01:41:26.756Z,2.33
2024-01-28T01:43:55.076Z,3.20
2024-01-28T01:46:23.985Z,1.90
2024-01-28T01:48:52.278Z,5.00
2024-01-28T01:51:22.957Z,12.87
2024-01-28T01:53:53.289Z,1.97
2024-01-28T01:56:21.635Z,2.83
2024-01-28T01:58:49.868Z,3.13
2024-01-28T02:01:18.623Z,3.53
2024-01-28T02:03:46.933Z,2.83
2024-01-28T02:06:18.200Z,3.07
2024-01-28T02:08:47.458Z,3.00
2024-01-28T02:11:17.059Z,3.57
2024-01-28T02:13:45.186Z,3.70
2024-01-28T02:16:13.321Z,8.30
2024-01-28T02:18:41.543Z,2.20
2024-01-28T02:21:09.752Z,7.07
2024-01-28T02:23:39.214Z,3.20
2024-01-28T02:26:07.312Z,7.80
2024-01-28T02:28:35.423Z,4.47
2024-01-28T02:31:03.978Z,2.57
2024-01-28T02:33:32.169Z,2.57
2024-01-28T02:36:00.535Z,3.57
2024-01-28T02:38:28.655Z,2.67
2024-01-28T02:40:58.302Z,7.30
2024-01-28T02:43:26.420Z,2.73
2024-01-28T02:45:54.772Z,2.60
2024-01-28T02:48:22.980Z,2.13
2024-01-28T02:50:51.029Z,2.70
2024-01-28T02:53:19.130Z,5.03
2024-01-28T02:55:47.172Z,2.60
2024-01-28T02:58:17.552Z,3.20
2024-01-28T03:00:45.740Z,3.13
2024-01-28T03:03:14.065Z,2.37
2024-01-28T03:05:42.706Z,2.37
2024-01-28T03:08:10.779Z,2.47
2024-01-28T03:10:38.843Z,3.07
2024-01-28T03:13:07.131Z,2.87
2024-01-28T03:15:36.711Z,3.17
2024-01-28T03:18:05.136Z,3.10
2024-01-28T03:20:33.391Z,3.93
2024-01-28T03:23:01.491Z,2.77
2024-01-28T03:25:29.524Z,1.80
2024-01-28T03:27:57.539Z,2.80
2024-01-28T03:30:25.649Z,3.13
2024-01-28T03:32:55.171Z,2.17
2024-01-28T03:35:23.733Z,2.67
2024-01-28T03:37:51.917Z,3.70
2024-01-28T03:40:20.871Z,3.03
2024-01-28T03:42:48.959Z,4.00
2024-01-28T03:45:17.458Z,3.10
2024-01-28T03:47:46.032Z,2.13
2024-01-28T03:50:15.726Z,3.00
2024-01-28T03:52:43.810Z,1.83
2024-01-28T03:55:11.884Z,2.13
2024-01-28T03:57:41.501Z,2.57
2024-01-28T04:00:12.840Z,2.50
2024-01-28T04:02:41.763Z,2.97
2024-01-28T04:05:10.551Z,2.87
2024-01-28T04:07:40.572Z,5.13
2024-01-28T04:10:09.382Z,7.60
2024-01-28T04:12:37.405Z,4.77
2024-01-28T04:15:07.152Z,6.87
2024-01-28T04:17:35.223Z,3.57
2024-01-28T04:20:03.614Z,2.47
2024-01-28T04:22:31.765Z,2.13
2024-01-28T04:25:01.221Z,5.70
2024-01-28T04:27:29.375Z,2.50
2024-01-28T04:29:57.881Z,3.40
2024-01-28T04:32:25.993Z,2.53
2024-01-28T04:34:54.165Z,2.83
2024-01-28T04:37:23.451Z,2.33
2024-01-28T04:39:51.977Z,3.10
2024-01-28T04:42:23.537Z,4.40
2024-01-28T04:44:51.885Z,3.00
2024-01-28T04:47:20.111Z,3.17
2024-01-28T04:49:48.220Z,4.73
2024-01-28T04:52:16.306Z,4.20
2024-01-28T04:54:44.379Z,3.20
2024-01-28T04:57:12.538Z,3.53
2024-01-28T04:59:41.970Z,2.83
2024-01-28T05:02:10.029Z,2.10
2024-01-28T05:04:38.298Z,2.17
2024-01-28T05:07:07.225Z,2.33
2024-01-28T05:09:35.453Z,2.50
2024-01-28T05:12:03.676Z,2.87
2024-01-28T05:14:31.758Z,9.23
2024-01-28T05:17:01.809Z,2.37
2024-01-28T05:19:30.070Z,2.00
2024-01-28T05:21:58.272Z,7.63
2024-01-28T05:24:26.409Z,6.10
2024-01-28T05:26:54.879Z,2.83
2024-01-28T05:29:22.916Z,2.37
2024-01-28T05:31:53.171Z,2.70
2024-01-28T05:34:22.778Z,3.20
2024-01-28T05:36:51.504Z,2.67
2024-01-28T05:39:19.926Z,6.50
2024-01-28T05:41:50.326Z,2.17
2024-01-28T05:44:21.068Z,2.00
2024-01-28T05:46:49.175Z,3.53
2024-01-28T05:49:17.536Z,2.30
2024-01-28T05:51:47.191Z,5.27
2024-01-28T05:54:15.416Z,4.63
2024-01-28T05:56:43.548Z,8.13
2024-01-28T06:02:45.209Z,2.60
2024-01-28T06:05:13.298Z,4.73
2024-01-28T06:07:41.380Z,4.80
2024-01-28T06:10:10.070Z,2.23
2024-01-28T06:12:38.210Z,2.20
2024-01-28T06:15:09.411Z,3.40
2024-01-28T06:17:38.253Z,3.60
2024-01-28T06:20:09.336Z,2.70
2024-01-28T06:22:38.082Z,2.90
2024-01-28T06:25:08.322Z,8.53
2024-01-28T06:27:36.489Z,3.33
2024-01-28T06:30:05.093Z,5.17
2024-01-28T06:32:33.594Z,4.23
2024-01-28T06:35:01.823Z,3.57
2024-01-28T06:37:31.230Z,3.13
2024-01-28T06:39:59.384Z,3.43
2024-01-28T06:42:27.488Z,3.87
2024-01-28T06:44:55.562Z,2.97
2024-01-28T06:47:23.606Z,3.63
2024-01-28T06:49:51.918Z,4.00
2024-01-28T06:52:20.134Z,3.83
2024-01-28T06:54:49.679Z,2.33
2024-01-28T06:57:19.567Z,2.37
2024-01-28T06:59:48.109Z,15.33
2024-01-28T07:02:16.527Z,2.90
2024-01-28T07:04:44.776Z,2.77
2024-01-28T07:07:13.034Z,2.50
2024-01-28T07:09:41.695Z,2.63
2024-01-28T07:12:11.289Z,4.47
2024-01-28T07:14:39.441Z,3.40
2024-01-28T07:17:08.284Z,3.43
2024-01-28T07:19:36.930Z,2.50
2024-01-28T07:22:06.299Z,3.87
2024-01-28T07:24:34.619Z,3.00
2024-01-28T07:27:02.692Z,6.40
2024-01-28T07:29:32.145Z,4.43
2024-01-28T07:32:00.157Z,3.93
2024-01-28T07:34:28.461Z,3.27
2024-01-28T07:36:58.289Z,5.77
2024-01-28T07:39:27.550Z,3.07
2024-01-28T07:41:55.747Z,3.33
2024-01-28T07:44:23.916Z,2.17
2024-01-28T07:46:54.026Z,5.77
2024-01-28T07:49:22.926Z,3.13
2024-01-28T07:51:51.224Z,2.67
2024-01-28T07:54:20.030Z,2.67
2024-01-28T07:56:48.593Z,3.03
2024-01-28T07:59:16.741Z,3.00
2024-01-28T08:01:44.924Z,4.40
2024-01-28T08:04:14.695Z,3.17
2024-01-28T08:06:43.105Z,2.70
2024-01-28T08:09:11.440Z,3.60
2024-01-28T08:11:39.835Z,4.20
2024-01-28T08:14:08.266Z,2.87
2024-01-28T08:16:37.010Z,4.50
2024-01-28T08:19:05.929Z,6.60
2024-01-28T08:21:35.898Z,4.60
2024-01-28T08:24:04.320Z,2.80
2024-01-28T08:26:32.595Z,3.33
2024-01-28T08:29:00.850Z,2.50
2024-01-28T08:31:28.999Z,2.22
2024-01-28T08:33:57.315Z,2.97
2024-01-28T08:36:25.897Z,2.53
2024-01-28T08:38:55.633Z,1.20
2024-01-28T08:41:23.782Z,2.08
2024-01-28T08:43:51.872Z,2.15
2024-01-28T08:46:20.049Z,1.40
2024-01-28T08:48:48.406Z,2.85
2024-01-28T08:51:16.557Z,2.05
2024-01-28T08:53:44.728Z,2.80
2024-01-28T08:56:14.303Z,2.00
2024-01-28T08:58:42.425Z,2.35
2024-01-28T09:01:13.088Z,2.15
2024-01-28T09:03:41.485Z,1.92
2024-01-28T09:06:09.928Z,1.42
2024-01-28T09:08:38.698Z,1.05
2024-01-28T09:11:06.891Z,1.77
2024-01-28T09:13:36.451Z,1.13
2024-01-28T09:16:05.086Z,2.65
2024-01-28T09:18:33.390Z,1.65
2024-01-28T09:21:01.521Z,1.60
2024-01-28T09:23:29.715Z,1.95
2024-01-28T09:25:57.844Z,2.60
2024-01-28T09:28:25.940Z,0.95
2024-01-28T09:30:55.440Z,1.52
2024-01-28T09:33:23.674Z,2.33
2024-01-28T09:35:53.523Z,1.52
2024-01-28T09:38:22.264Z,2.47
2024-01-28T09:40:50.595Z,3.30
2024-01-28T09:43:23.896Z,3.03
2024-01-28T09:45:52.656Z,1.88
2024-01-28T09:48:22.795Z,1.70
2024-01-28T09:50:51.369Z,1.60
2024-01-28T09:53:19.773Z,2.33
2024-01-28T09:55:48.140Z,1.95
2024-01-28T09:58:16.643Z,2.60
2024-01-28T10:00:45.145Z,1.40
2024-01-28T10:03:14.223Z,3.03
2024-01-28T10:05:43.702Z,1.52
2024-01-28T10:08:11.892Z,1.45
2024-01-28T10:10:41.694Z,1.23
2024-01-28T10:13:09.945Z,2.35
2024-01-28T10:15:38.266Z,3.72
2024-01-28T10:18:07.443Z,1.38
2024-01-28T10:20:36.432Z,2.00
2024-01-28T10:23:06.369Z,3.40
2024-01-28T10:25:34.539Z,1.98
2024-01-28T10:28:03.453Z,1.10
2024-01-28T10:30:31.648Z,1.30
2024-01-28T10:32:59.831Z,1.52
2024-01-28T10:35:29.378Z,1.42
2024-01-28T10:38:00.319Z,1.08
2024-01-28T10:40:34.188Z,1.27
2024-01-28T10:43:03.409Z,1.13
2024-01-28T10:45:33.213Z,1.95
2024-01-28T10:48:08.486Z,1.38
2024-01-28T10:50:37.213Z,1.90
2024-01-28T10:53:06.468Z,1.23
2024-01-28T10:55:37.055Z,3.47
2024-01-28T10:58:05.477Z,1.17
2024-01-28T11:03:46.616Z,1.20
2024-01-28T11:06:17.619Z,4.28
2024-01-28T11:08:47.344Z,1.85
2024-01-28T11:11:16.358Z,2.25
2024-01-28T11:13:45.636Z,1.33
2024-01-28T11:16:16.433Z,1.10
2024-01-28T11:18:57.223Z,2.42
2024-01-28T11:21:27.089Z,1.15
2024-01-28T11:23:55.939Z,1.15
2024-01-28T11:26:26.391Z,1.40
2024-01-28T11:28:56.811Z,1.48
2024-01-28T11:31:31.697Z,2.25
2024-01-28T11:34:15.229Z,0.70
2024-01-28T11:36:45.898Z,1.95
2024-01-28T11:39:16.503Z,1.80
2024-01-28T11:41:46.322Z,1.60
2024-01-28T11:44:16.248Z,2.53
2024-01-28T11:46:45.704Z,0.90
2024-01-28T11:49:15.694Z,2.15
2024-01-28T11:51:44.175Z,1.27
2024-01-28T11:54:15.579Z,1.63
2024-01-28T11:56:43.840Z,1.52
2024-01-28T11:59:12.614Z,1.50
2024-01-28T12:01:40.861Z,2.88
2024-01-28T12:04:10.022Z,1.83
2024-01-28T12:06:39.794Z,6.53
2024-01-28T12:09:07.984Z,1.45
2024-01-28T12:11:36.959Z,2.13
2024-01-28T12:14:07.217Z,1.35
2024-01-28T12:16:37.774Z,1.75
2024-01-28T12:19:08.501Z,1.10
2024-01-28T12:21:40.538Z,1.77
2024-01-28T12:24:11.821Z,2.88
2024-01-28T12:26:40.850Z,1.30
2024-01-28T12:29:09.601Z,0.85
2024-01-28T12:31:37.758Z,1.02
2024-01-28T12:34:15.562Z,2.50
2024-01-28T12:36:45.179Z,1.27
2024-01-28T12:39:15.018Z,1.13
2024-01-28T12:41:43.375Z,1.63
2024-01-28T12:44:11.605Z,0.77
2024-01-28T12:46:39.834Z,2.92
2024-01-28T12:49:12.692Z,1.05
2024-01-28T12:51:41.815Z,1.73
2024-01-28T12:54:11.631Z,1.42
2024-01-28T12:56:40.255Z,1.58
2024-01-28T12:59:08.384Z,2.97
2024-01-28T13:01:36.919Z,1.85
2024-01-28T13:04:05.506Z,1.27
2024-01-28T13:06:33.983Z,1.75
2024-01-28T13:09:02.273Z,1.30
2024-01-28T13:11:32.010Z,2.88
2024-01-28T13:14:00.942Z,2.42
2024-01-28T13:16:29.327Z,1.80
2024-01-28T13:18:57.621Z,1.40
2024-01-28T13:21:25.912Z,1.48
2024-01-28T13:23:54.088Z,2.45
2024-01-28T13:26:23.090Z,2.45
2024-01-28T13:28:52.659Z,1.55
2024-01-28T13:31:21.006Z,1.80
2024-01-28T13:33:49.917Z,1.63
2024-01-28T13:36:18.821Z,2.17
2024-01-28T13:38:48.204Z,2.15
2024-01-28T13:41:17.135Z,2.05
2024-01-28T13:43:45.337Z,1.80
2024-01-28T13:46:15.166Z,1.95
2024-01-28T13:48:43.863Z,1.92
2024-01-28T13:51:12.480Z,2.03
2024-01-28T13:53:40.847Z,2.40
2024-01-28T13:56:09.682Z,2.13
2024-01-28T13:58:38.216Z,2.38
2024-01-28T14:01:07.606Z,1.75
2024-01-28T14:03:37.454Z,1.55
2024-01-28T14:06:06.252Z,2.65
2024-01-28T14:08:34.558Z,1.70
2024-01-28T14:11:03.727Z,2.95
2024-01-28T14:13:32.086Z,2.20
2024-01-28T14:16:00.613Z,3.70
2024-01-28T14:18:29.021Z,1.77
2024-01-28T14:20:58.601Z,4.55
2024-01-28T14:23:26.890Z,4.15
2024-01-28T14:25:55.104Z,6.55
2024-01-28T14:28:23.394Z,2.15
2024-01-28T14:30:51.641Z,1.75
2024-01-28T14:33:20.086Z,1.88
2024-01-28T14:35:48.873Z,2.05
2024-01-28T14:38:19.012Z,2.38
2024-01-28T14:40:47.126Z,2.45
2024-01-28T14:43:15.706Z,4.00
2024-01-28T14:45:45.358Z,2.92
2024-01-28T14:48:13.850Z,2.80
2024-01-28T14:50:42.150Z,1.75
2024-01-28T14:53:10.288Z,2.60
2024-01-28T14:55:39.762Z,2.65
2024-01-28T14:58:08.907Z,2.03
2024-01-28T15:00:37.075Z,1.83
2024-01-28T15:03:06.005Z,4.50
2024-01-28T15:05:34.230Z,3.60
2024-01-28T15:08:03.210Z,5.55
2024-01-28T15:10:31.448Z,1.88
2024-01-28T15:13:01.135Z,4.18
2024-01-28T15:15:29.353Z,1.92
2024-01-28T15:17:58.784Z,2.60
2024-01-28T15:20:27.284Z,2.95
2024-01-28T15:22:55.394Z,1.92
2024-01-28T15:25:23.781Z,1.92
2024-01-28T15:27:52.034Z,2.17
2024-01-28T15:30:21.822Z,2.45
2024-01-28T15:32:50.237Z,3.05
2024-01-28T15:35:19.009Z,6.53
2024-01-28T15:37:47.168Z,4.82
2024-01-28T15:40:15.627Z,3.08
2024-01-28T15:42:43.868Z,2.53
2024-01-28T15:45:12.329Z,2.15
2024-01-28T15:47:43.639Z,4.82
2024-01-28T15:50:12.110Z,2.33
2024-01-28T15:52:40.143Z,2.53
2024-01-28T15:55:12.346Z,2.50
2024-01-28T15:57:45.231Z,2.33
2024-01-28T16:00:14.701Z,2.50
2024-01-28T16:04:46.036Z,7.40
2024-01-28T16:07:14.216Z,2.13
2024-01-28T16:09:48.608Z,1.80
2024-01-28T16:12:20.208Z,2.40
2024-01-28T16:14:48.437Z,2.00
2024-01-28T16:17:20.004Z,3.10
2024-01-28T16:19:49.902Z,5.20
2024-01-28T16:22:18.646Z,2.43
2024-01-28T16:24:46.853Z,4.57
2024-01-28T16:27:15.127Z,3.70
2024-01-28T16:29:46.146Z,3.47
2024-01-28T16:32:15.251Z,2.60
2024-01-28T16:34:44.197Z,2.53
2024-01-28T16:37:14.215Z,3.13
2024-01-28T16:39:42.632Z,2.67
2024-01-28T16:42:10.856Z,2.23
2024-01-28T16:44:38.976Z,2.80
2024-01-28T16:47:08.829Z,3.80
2024-01-28T16:49:37.202Z,2.63
2024-01-28T16:52:06.315Z,3.00
2024-01-28T16:54:36.073Z,2.50
2024-01-28T16:57:05.694Z,3.67
2024-01-28T16:59:34.647Z,4.20
2024-01-28T17:02:02.776Z,5.50
2024-01-28T17:04:31.454Z,4.77
2024-01-28T17:06:59.704Z,3.40
2024-01-28T17:09:27.994Z,3.80
2024-01-28T17:11:57.548Z,4.27
2024-01-28T17:14:26.143Z,4.97
2024-01-28T17:16:54.286Z,3.87
2024-01-28T17:19:22.458Z,4.10
2024-01-28T17:21:50.740Z,8.17
2024-01-28T17:24:19.698Z,3.83
2024-01-28T17:26:47.877Z,3.80
2024-01-28T17:29:17.361Z,5.37
2024-01-28T17:31:45.800Z,3.93
2024-01-28T17:34:15.794Z,3.13
2024-01-28T17:36:44.453Z,5.00
2024-01-28T17:39:12.819Z,5.43
2024-01-28T17:41:41.109Z,5.43
2024-01-28T17:44:10.002Z,5.13
2024-01-28T17:46:39.509Z,4.27
2024-01-28T17:49:08.470Z,3.53
2024-01-28T17:51:36.705Z,10.57
2024-01-28T17:54:04.974Z,7.43
2024-01-28T17:56:36.862Z,7.40
2024-01-28T17:59:05.454Z,6.10
2024-01-28T18:01:36.563Z,8.10
2024-01-28T18:04:06.501Z,7.50
2024-01-28T18:06:35.213Z,7.47
2024-01-28T18:09:04.303Z,9.80
2024-01-28T18:11:33.352Z,5.07
2024-01-28T18:14:01.526Z,4.90
2024-01-28T18:16:30.094Z,5.33
2024-01-28T18:18:58.719Z,6.70
2024-01-28T18:21:28.838Z,6.23
2024-01-28T18:23:57.162Z,5.83
2024-01-28T18:26:28.572Z,5.53
2024-01-28T18:28:57.193Z,5.17
2024-01-28T18:31:25.929Z,6.33
2024-01-28T18:33:54.167Z,5.73
2024-01-28T18:36:24.749Z,5.80
2024-01-28T18:38:54.933Z,5.87
2024-01-28T18:41:23.257Z,6.10
2024-01-28T18:43:53.665Z,5.90
2024-01-28T18:46:21.886Z,7.77
2024-01-28T18:48:50.728Z,5.00
2024-01-28T18:51:19.052Z,5.40
2024-01-28T18:53:48.386Z,6.60
2024-01-28T18:56:19.361Z,5.30
2024-01-28T18:58:48.293Z,7.83
2024-01-28T19:01:17.633Z,5.03
2024-01-28T19:03:45.909Z,14.63
2024-01-28T19:06:15.507Z,7.63
2024-01-28T19:08:43.866Z,5.33
2024-01-28T19:11:12.152Z,5.67
2024-01-28T19:13:42.146Z,5.37
2024-01-28T19:16:10.652Z,5.13
2024-01-28T19:18:38.912Z,6.43
2024-01-28T19:21:07.913Z,11.07
2024-01-28T19:23:36.167Z,9.67
2024-01-28T19:26:05.072Z,10.20
2024-01-28T19:28:33.816Z,8.10
2024-01-28T19:31:03.580Z,7.27
2024-01-28T19:33:32.273Z,6.57
2024-01-28T19:36:00.677Z,10.10
2024-01-28T19:38:29.086Z,7.03
2024-01-28T19:40:57.211Z,10.50
2024-01-28T19:43:26.796Z,8.97
2024-01-28T19:45:55.785Z,7.10
2024-01-28T19:48:25.606Z,7.53
2024-01-28T19:50:54.688Z,6.57
2024-01-28T19:53:23.153Z,12.43
2024-01-28T19:55:51.350Z,9.07
2024-01-28T19:58:19.976Z,7.43
2024-01-28T20:00:48.808Z,8.17
2024-01-28T20:03:19.144Z,7.47
2024-01-28T20:05:48.939Z,8.57
2024-01-28T20:08:17.898Z,7.77
2024-01-28T20:10:46.950Z,7.87
2024-01-28T20:13:16.273Z,9.23
2024-01-28T20:15:45.035Z,7.50
2024-01-28T20:18:13.218Z,5.63
2024-01-28T20:20:41.896Z,6.43
2024-01-28T20:23:14.787Z,7.93
2024-01-28T20:25:43.362Z,8.20
2024-01-28T20:28:12.620Z,7.27
2024-01-28T20:30:40.888Z,6.53
2024-01-28T20:33:09.247Z,12.70
2024-01-28T20:35:38.032Z,8.33
2024-01-28T20:38:07.793Z,8.33
2024-01-28T20:40:37.428Z,10.00
2024-01-28T20:43:05.878Z,7.23
2024-01-28T20:45:34.257Z,8.17
2024-01-28T20:48:02.620Z,6.53
2024-01-28T20:50:31.920Z,6.63
2024-01-28T20:53:00.129Z,7.63
2024-01-28T20:55:28.379Z,7.53
2024-01-28T20:57:57.950Z,6.40
2024-01-28T21:00:26.168Z,6.97
2024-01-28T21:05:49.702Z,7.10
2024-01-28T21:08:20.168Z,8.43
2024-01-28T21:10:48.471Z,6.87
2024-01-28T21:13:16.757Z,7.40
2024-01-28T21:15:45.218Z,6.87
2024-01-28T21:18:13.693Z,7.03
2024-01-28T21:20:41.924Z,7.80
2024-01-28T21:23:11.497Z,6.43
2024-01-28T21:25:39.764Z,9.43
2024-01-28T21:28:08.608Z,16.10
2024-01-28T21:30:37.358Z,6.23
2024-01-28T21:33:09.071Z,6.87
2024-01-28T21:35:37.376Z,7.10
2024-01-28T21:38:05.834Z,7.63
2024-01-28T21:40:35.370Z,6.87
2024-01-28T21:43:03.650Z,8.73
2024-01-28T21:45:31.960Z,7.13
2024-01-28T21:48:00.231Z,9.67
2024-01-28T21:50:28.391Z,7.03
2024-01-28T21:52:56.501Z,8.93
2024-01-28T21:55:25.617Z,8.13
2024-01-28T21:57:55.295Z,13.60
2024-01-28T22:00:23.735Z,6.30
2024-01-28T22:02:52.806Z,7.20
2024-01-28T22:05:21.079Z,7.13
2024-01-28T22:07:49.454Z,10.27
2024-01-28T22:10:18.542Z,7.23
2024-01-28T22:12:46.614Z,6.83
2024-01-28T22:15:16.061Z,7.40
2024-01-28T22:17:44.375Z,7.00
2024-01-28T22:20:14.007Z,6.23
2024-01-28T22:22:42.570Z,6.83
2024-01-28T22:25:11.135Z,7.10
2024-01-28T22:27:39.373Z,7.03
2024-01-28T22:30:08.783Z,9.13
2024-01-28T22:32:39.372Z,7.23
2024-01-28T22:35:08.924Z,7.17
2024-01-28T22:37:37.474Z,6.97
2024-01-28T22:40:11.670Z,6.33
2024-01-28T22:42:41.739Z,7.03
2024-01-28T22:45:11.700Z,6.97
2024-01-28T22:47:42.010Z,12.87
2024-01-28T22:50:11.644Z,6.13
2024-01-28T22:52:39.928Z,10.40
2024-01-28T22:55:09.597Z,6.00
2024-01-28T22:57:37.969Z,6.90
2024-01-28T23:00:10.483Z,6.43
2024-01-28T23:02:38.715Z,7.78
2024-01-28T23:05:09.532Z,7.50
2024-01-28T23:07:37.756Z,8.73
2024-01-28T23:10:07.039Z,7.90
2024-01-28T23:12:35.995Z,8.77
2024-01-28T23:15:11.875Z,7.07
2024-01-28T23:17:45.839Z,6.30
2024-01-28T23:20:15.321Z,9.67
2024-01-28T23:22:44.690Z,6.77
2024-01-28T23:25:13.513Z,8.07
2024-01-28T23:27:42.754Z,7.43
2024-01-28T23:30:11.959Z,7.97
2024-01-28T23:32:40.317Z,8.77
2024-01-28T23:35:09.193Z,7.37
2024-01-28T23:37:40.133Z,7.47
2024-01-28T23:40:12.138Z,11.77
2024-01-28T23:42:40.839Z,6.28
2024-01-28T23:45:11.332Z,11.87
2024-01-28T23:47:40.124Z,7.57
2024-01-28T23:50:09.168Z,6.90
2024-01-28T23:52:38.717Z,6.70
2024-01-28T23:55:07.984Z,7.97
2024-01-28T23:57:36.211Z,7.33
